sensor_id;sensor_type;location;lat;lon;timestamp;temperature;humidity
7516;DHT22;3799;47.184;8.538;2023-03-22T00:00:56;11.10;99.90
7516;DHT22;3799;47.184;8.538;2023-03-22T00:03:24;11.00;99.90
7516;DHT22;3799;47.184;8.538;2023-03-22T00:05:56;11.20;99.90
7516;DHT22;3799;47.184;8.538;2023-03-22T00:08:23;11.00;99.90
7516;DHT22;3799;47.184;8.538;2023-03-22T00:10:50;11.00;99.90
7516;DHT22;3799;47.184;8.538;2023-03-22T00:13:17;10.90;99.90
7516;DHT22;3799;47.184;8.538;2023-03-22T00:15:45;10.80;99.90
7516;DHT22;3799;47.184;8.538;2023-03-22T00:18:17;11.00;99.90
7516;DHT22;3799;47.184;8.538;2023-03-22T00:20:50;11.10;99.90
7516;DHT22;3799;47.184;8.538;2023-03-22T00:23:25;10.90;99.90
7516;DHT22;3799;47.184;8.538;2023-03-22T00:25:52;10.90;99.90
7516;DHT22;3799;47.184;8.538;2023-03-22T00:28:23;11.10;99.90
7516;DHT22;3799;47.184;8.538;2023-03-22T00:30:55;10.90;99.90
7516;DHT22;3799;47.184;8.538;2023-03-22T00:33:24;10.90;99.90
7516;DHT22;3799;47.184;8.538;2023-03-22T00:35:53;11.00;99.90
7516;DHT22;3799;47.184;8.538;2023-03-22T00:38:24;10.60;99.90
7516;DHT22;3799;47.184;8.538;2023-03-22T00:41:08;10.60;99.90
7516;DHT22;3799;47.184;8.538;2023-03-22T00:43:38;10.70;99.90
7516;DHT22;3799;47.184;8.538;2023-03-22T00:46:05;10.60;99.90
7516;DHT22;3799;47.184;8.538;2023-03-22T00:48:39;10.70;99.90
7516;DHT22;3799;47.184;8.538;2023-03-22T00:51:08;10.70;99.90
7516;DHT22;3799;47.184;8.538;2023-03-22T00:53:36;10.70;99.90
7516;DHT22;3799;47.184;8.538;2023-03-22T00:56:08;10.60;99.90
7516;DHT22;3799;47.184;8.538;2023-03-22T00:58:35;10.60;99.90
7516;DHT22;3799;47.184;8.538;2023-03-22T01:01:03;10.50;99.90
7516;DHT22;3799;47.184;8.538;2023-03-22T01:03:30;10.60;99.90
7516;DHT22;3799;47.184;8.538;2023-03-22T01:05:59;10.60;99.90
7516;DHT22;3799;47.184;8.538;2023-03-22T01:08:27;10.60;99.90
7516;DHT22;3799;47.184;8.538;2023-03-22T01:11:00;10.60;99.90
7516;DHT22;3799;47.184;8.538;2023-03-22T01:13:27;10.60;99.90
7516;DHT22;3799;47.184;8.538;2023-03-22T01:15:55;10.60;99.90
7516;DHT22;3799;47.184;8.538;2023-03-22T01:18:22;10.60;99.90
7516;DHT22;3799;47.184;8.538;2023-03-22T01:20:50;10.40;99.90
7516;DHT22;3799;47.184;8.538;2023-03-22T01:23:18;10.50;99.90
7516;DHT22;3799;47.184;8.538;2023-03-22T01:25:46;10.40;99.90
7516;DHT22;3799;47.184;8.538;2023-03-22T01:28:13;10.50;99.90
7516;DHT22;3799;47.184;8.538;2023-03-22T01:30:41;10.40;99.90
7516;DHT22;3799;47.184;8.538;2023-03-22T01:33:08;10.40;99.90
7516;DHT22;3799;47.184;8.538;2023-03-22T01:35:36;10.30;99.90
7516;DHT22;3799;47.184;8.538;2023-03-22T01:38:03;10.30;99.90
7516;DHT22;3799;47.184;8.538;2023-03-22T01:40:32;10.30;99.90
7516;DHT22;3799;47.184;8.538;2023-03-22T01:42:59;10.10;99.90
7516;DHT22;3799;47.184;8.538;2023-03-22T01:48:25;10.00;99.90
7516;DHT22;3799;47.184;8.538;2023-03-22T01:51:09;10.00;99.90
7516;DHT22;3799;47.184;8.538;2023-03-22T01:54:04;9.70;99.90
7516;DHT22;3799;47.184;8.538;2023-03-22T01:56:43;9.50;99.90
7516;DHT22;3799;47.184;8.538;2023-03-22T01:59:13;9.60;99.90
7516;DHT22;3799;47.184;8.538;2023-03-22T02:01:41;9.40;99.90
7516;DHT22;3799;47.184;8.538;2023-03-22T02:04:17;9.60;99.90
7516;DHT22;3799;47.184;8.538;2023-03-22T02:06:46;9.50;99.90
7516;DHT22;3799;47.184;8.538;2023-03-22T02:09:14;9.30;99.90
7516;DHT22;3799;47.184;8.538;2023-03-22T02:11:53;9.40;99.90
7516;DHT22;3799;47.184;8.538;2023-03-22T02:28:27;9.00;99.90
7516;DHT22;3799;47.184;8.538;2023-03-22T02:36:47;8.90;99.90
7516;DHT22;3799;47.184;8.538;2023-03-22T02:48:03;8.90;99.90
7516;DHT22;3799;47.184;8.538;2023-03-22T02:50:54;8.90;99.90
7516;DHT22;3799;47.184;8.538;2023-03-22T02:53:44;8.80;99.90
7516;DHT22;3799;47.184;8.538;2023-03-22T02:56:33;8.80;99.90
7516;DHT22;3799;47.184;8.538;2023-03-22T02:59:06;8.90;99.90
7516;DHT22;3799;47.184;8.538;2023-03-22T03:01:46;8.50;99.90
7516;DHT22;3799;47.184;8.538;2023-03-22T03:04:18;8.70;99.90
7516;DHT22;3799;47.184;8.538;2023-03-22T03:06:54;8.60;99.90
7516;DHT22;3799;47.184;8.538;2023-03-22T03:09:24;8.80;99.90
7516;DHT22;3799;47.184;8.538;2023-03-22T03:11:52;8.40;99.90
7516;DHT22;3799;47.184;8.538;2023-03-22T03:14:27;8.50;99.90
7516;DHT22;3799;47.184;8.538;2023-03-22T03:19:44;8.40;99.90
7516;DHT22;3799;47.184;8.538;2023-03-22T03:22:33;8.40;99.90
7516;DHT22;3799;47.184;8.538;2023-03-22T03:25:13;8.40;99.90
7516;DHT22;3799;47.184;8.538;2023-03-22T03:28:08;8.60;99.90
7516;DHT22;3799;47.184;8.538;2023-03-22T03:31:49;8.20;99.90
7516;DHT22;3799;47.184;8.538;2023-03-22T03:36:22;8.40;99.90
7516;DHT22;3799;47.184;8.538;2023-03-22T03:38:53;8.20;99.90
7516;DHT22;3799;47.184;8.538;2023-03-22T03:41:26;8.40;99.90
7516;DHT22;3799;47.184;8.538;2023-03-22T03:43:55;8.40;99.90
7516;DHT22;3799;47.184;8.538;2023-03-22T03:46:24;8.20;99.90
7516;DHT22;3799;47.184;8.538;2023-03-22T03:48:54;8.10;99.90
7516;DHT22;3799;47.184;8.538;2023-03-22T03:51:23;8.10;99.90
7516;DHT22;3799;47.184;8.538;2023-03-22T03:53:52;8.10;99.90
7516;DHT22;3799;47.184;8.538;2023-03-22T03:56:19;8.30;99.90
7516;DHT22;3799;47.184;8.538;2023-03-22T03:58:46;8.10;99.90
7516;DHT22;3799;47.184;8.538;2023-03-22T04:01:13;8.30;99.90
7516;DHT22;3799;47.184;8.538;2023-03-22T04:03:40;8.10;99.90
7516;DHT22;3799;47.184;8.538;2023-03-22T04:06:08;8.20;99.90
7516;DHT22;3799;47.184;8.538;2023-03-22T04:08:35;8.10;99.90
7516;DHT22;3799;47.184;8.538;2023-03-22T04:11:03;8.00;99.90
7516;DHT22;3799;47.184;8.538;2023-03-22T04:13:30;8.00;99.90
7516;DHT22;3799;47.184;8.538;2023-03-22T04:16:00;8.10;99.90
7516;DHT22;3799;47.184;8.538;2023-03-22T04:18:28;8.10;99.90
7516;DHT22;3799;47.184;8.538;2023-03-22T04:20:55;8.00;99.90
7516;DHT22;3799;47.184;8.538;2023-03-22T04:23:23;8.10;99.90
7516;DHT22;3799;47.184;8.538;2023-03-22T04:25:51;8.00;99.90
7516;DHT22;3799;47.184;8.538;2023-03-22T04:28:19;8.20;99.90
7516;DHT22;3799;47.184;8.538;2023-03-22T04:30:47;8.10;99.90
7516;DHT22;3799;47.184;8.538;2023-03-22T04:33:18;8.00;99.90
7516;DHT22;3799;47.184;8.538;2023-03-22T04:35:49;8.10;99.90
7516;DHT22;3799;47.184;8.538;2023-03-22T04:38:23;7.80;99.90
7516;DHT22;3799;47.184;8.538;2023-03-22T04:40:51;7.80;99.90
7516;DHT22;3799;47.184;8.538;2023-03-22T04:43:18;7.70;99.90
7516;DHT22;3799;47.184;8.538;2023-03-22T04:45:45;7.80;99.90
7516;DHT22;3799;47.184;8.538;2023-03-22T04:48:13;7.80;99.90
7516;DHT22;3799;47.184;8.538;2023-03-22T04:50:40;7.70;99.90
7516;DHT22;3799;47.184;8.538;2023-03-22T04:53:08;7.70;99.90
7516;DHT22;3799;47.184;8.538;2023-03-22T04:55:35;7.70;99.90
7516;DHT22;3799;47.184;8.538;2023-03-22T04:58:03;7.70;99.90
7516;DHT22;3799;47.184;8.538;2023-03-22T05:00:30;7.60;99.90
7516;DHT22;3799;47.184;8.538;2023-03-22T05:02:57;7.50;99.90
7516;DHT22;3799;47.184;8.538;2023-03-22T05:05:24;7.50;99.90
7516;DHT22;3799;47.184;8.538;2023-03-22T05:07:52;7.60;99.90
7516;DHT22;3799;47.184;8.538;2023-03-22T05:10:20;7.70;99.90
7516;DHT22;3799;47.184;8.538;2023-03-22T05:12:47;7.60;99.90
7516;DHT22;3799;47.184;8.538;2023-03-22T05:15:15;7.80;99.90
7516;DHT22;3799;47.184;8.538;2023-03-22T05:17:43;7.80;99.90
7516;DHT22;3799;47.184;8.538;2023-03-22T05:20:10;7.50;99.90
7516;DHT22;3799;47.184;8.538;2023-03-22T05:22:38;7.50;99.90
7516;DHT22;3799;47.184;8.538;2023-03-22T05:25:08;7.80;99.90
7516;DHT22;3799;47.184;8.538;2023-03-22T05:27:36;7.60;99.90
7516;DHT22;3799;47.184;8.538;2023-03-22T05:30:06;7.90;99.90
7516;DHT22;3799;47.184;8.538;2023-03-22T05:32:33;7.70;99.90
7516;DHT22;3799;47.184;8.538;2023-03-22T05:35:03;7.60;99.90
7516;DHT22;3799;47.184;8.538;2023-03-22T05:37:31;7.90;99.90
7516;DHT22;3799;47.184;8.538;2023-03-22T05:39:58;7.90;99.90
7516;DHT22;3799;47.184;8.538;2023-03-22T05:42:25;7.70;99.90
7516;DHT22;3799;47.184;8.538;2023-03-22T05:44:53;8.00;99.90
7516;DHT22;3799;47.184;8.538;2023-03-22T05:47:21;7.60;99.90
7516;DHT22;3799;47.184;8.538;2023-03-22T05:50:03;8.00;99.90
7516;DHT22;3799;47.184;8.538;2023-03-22T05:52:33;7.90;99.90
7516;DHT22;3799;47.184;8.538;2023-03-22T05:55:01;7.90;99.90
7516;DHT22;3799;47.184;8.538;2023-03-22T05:57:28;7.80;99.90
7516;DHT22;3799;47.184;8.538;2023-03-22T05:59:56;7.90;99.90
7516;DHT22;3799;47.184;8.538;2023-03-22T06:02:24;8.00;99.90
7516;DHT22;3799;47.184;8.538;2023-03-22T06:04:52;8.00;99.90
7516;DHT22;3799;47.184;8.538;2023-03-22T06:07:20;8.00;99.90
7516;DHT22;3799;47.184;8.538;2023-03-22T06:09:47;8.10;99.90
7516;DHT22;3799;47.184;8.538;2023-03-22T06:12:16;7.60;99.90
7516;DHT22;3799;47.184;8.538;2023-03-22T06:14:43;8.00;99.90
7516;DHT22;3799;47.184;8.538;2023-03-22T06:17:11;7.70;99.90
7516;DHT22;3799;47.184;8.538;2023-03-22T06:19:42;7.80;99.90
7516;DHT22;3799;47.184;8.538;2023-03-22T06:22:09;7.70;99.90
7516;DHT22;3799;47.184;8.538;2023-03-22T06:24:39;7.80;99.90
7516;DHT22;3799;47.184;8.538;2023-03-22T06:27:08;7.70;99.90
7516;DHT22;3799;47.184;8.538;2023-03-22T06:29:38;7.90;99.90
7516;DHT22;3799;47.184;8.538;2023-03-22T06:32:09;7.90;99.90
7516;DHT22;3799;47.184;8.538;2023-03-22T06:34:50;7.80;99.90
7516;DHT22;3799;47.184;8.538;2023-03-22T06:37:37;8.00;99.90
7516;DHT22;3799;47.184;8.538;2023-03-22T06:40:05;7.90;99.90
7516;DHT22;3799;47.184;8.538;2023-03-22T06:42:35;8.10;99.90
7516;DHT22;3799;47.184;8.538;2023-03-22T06:45:03;8.10;99.90
7516;DHT22;3799;47.184;8.538;2023-03-22T06:47:33;8.30;99.90
7516;DHT22;3799;47.184;8.538;2023-03-22T06:50:22;8.40;99.90
7516;DHT22;3799;47.184;8.538;2023-03-22T06:52:49;8.30;99.90
7516;DHT22;3799;47.184;8.538;2023-03-22T06:55:17;8.40;99.90
7516;DHT22;3799;47.184;8.538;2023-03-22T06:57:44;8.50;99.90
7516;DHT22;3799;47.184;8.538;2023-03-22T07:00:12;8.40;99.90
7516;DHT22;3799;47.184;8.538;2023-03-22T07:02:42;8.50;99.90
7516;DHT22;3799;47.184;8.538;2023-03-22T07:05:10;8.50;99.90
7516;DHT22;3799;47.184;8.538;2023-03-22T07:07:38;8.60;99.90
7516;DHT22;3799;47.184;8.538;2023-03-22T07:10:06;8.90;99.90
7516;DHT22;3799;47.184;8.538;2023-03-22T07:12:34;8.90;99.90
7516;DHT22;3799;47.184;8.538;2023-03-22T07:15:02;9.00;99.90
7516;DHT22;3799;47.184;8.538;2023-03-22T07:17:30;9.20;99.90
7516;DHT22;3799;47.184;8.538;2023-03-22T07:19:57;9.10;99.90
7516;DHT22;3799;47.184;8.538;2023-03-22T07:22:34;9.00;99.90
7516;DHT22;3799;47.184;8.538;2023-03-22T07:25:07;9.00;99.90
7516;DHT22;3799;47.184;8.538;2023-03-22T07:27:46;9.50;99.90
7516;DHT22;3799;47.184;8.538;2023-03-22T07:30:17;9.30;99.90
7516;DHT22;3799;47.184;8.538;2023-03-22T07:32:45;9.40;99.90
7516;DHT22;3799;47.184;8.538;2023-03-22T07:35:12;9.60;99.90
7516;DHT22;3799;47.184;8.538;2023-03-22T07:37:43;9.40;99.90
7516;DHT22;3799;47.184;8.538;2023-03-22T07:40:11;9.80;99.90
7516;DHT22;3799;47.184;8.538;2023-03-22T07:42:39;9.80;99.90
7516;DHT22;3799;47.184;8.538;2023-03-22T07:45:06;9.80;99.90
7516;DHT22;3799;47.184;8.538;2023-03-22T07:47:37;10.00;99.90
7516;DHT22;3799;47.184;8.538;2023-03-22T07:50:08;9.90;99.90
7516;DHT22;3799;47.184;8.538;2023-03-22T07:52:56;10.20;99.90
7516;DHT22;3799;47.184;8.538;2023-03-22T07:55:35;10.30;99.90
7516;DHT22;3799;47.184;8.538;2023-03-22T07:58:11;10.20;99.90
7516;DHT22;3799;47.184;8.538;2023-03-22T08:00:38;10.60;99.90
7516;DHT22;3799;47.184;8.538;2023-03-22T08:03:10;10.50;99.90
7516;DHT22;3799;47.184;8.538;2023-03-22T08:05:39;10.70;99.90
7516;DHT22;3799;47.184;8.538;2023-03-22T08:08:09;10.90;99.90
7516;DHT22;3799;47.184;8.538;2023-03-22T08:10:55;11.10;99.90
7516;DHT22;3799;47.184;8.538;2023-03-22T08:13:37;11.20;99.90
7516;DHT22;3799;47.184;8.538;2023-03-22T08:16:30;11.30;99.90
7516;DHT22;3799;47.184;8.538;2023-03-22T08:18:57;11.50;99.90
7516;DHT22;3799;47.184;8.538;2023-03-22T08:21:25;11.70;99.90
7516;DHT22;3799;47.184;8.538;2023-03-22T08:23:57;11.70;99.90
7516;DHT22;3799;47.184;8.538;2023-03-22T08:26:24;11.80;99.90
7516;DHT22;3799;47.184;8.538;2023-03-22T08:28:52;11.80;99.90
7516;DHT22;3799;47.184;8.538;2023-03-22T08:31:19;12.00;99.90
7516;DHT22;3799;47.184;8.538;2023-03-22T08:33:47;11.90;99.90
7516;DHT22;3799;47.184;8.538;2023-03-22T08:36:39;12.00;99.90
7516;DHT22;3799;47.184;8.538;2023-03-22T08:39:16;12.10;99.90
7516;DHT22;3799;47.184;8.538;2023-03-22T08:41:47;12.30;99.90
7516;DHT22;3799;47.184;8.538;2023-03-22T08:44:14;12.50;99.90
7516;DHT22;3799;47.184;8.538;2023-03-22T08:46:41;12.50;99.90
7516;DHT22;3799;47.184;8.538;2023-03-22T08:49:09;12.70;99.70
7516;DHT22;3799;47.184;8.538;2023-03-22T08:51:36;12.60;99.00
7516;DHT22;3799;47.184;8.538;2023-03-22T08:54:04;12.50;97.80
7516;DHT22;3799;47.184;8.538;2023-03-22T08:56:31;12.70;97.10
7516;DHT22;3799;47.184;8.538;2023-03-22T08:59:04;12.60;96.50
7516;DHT22;3799;47.184;8.538;2023-03-22T09:01:31;12.70;95.70
7516;DHT22;3799;47.184;8.538;2023-03-22T09:03:59;13.10;95.30
7516;DHT22;3799;47.184;8.538;2023-03-22T09:06:26;12.80;94.70
7516;DHT22;3799;47.184;8.538;2023-03-22T09:09:16;13.10;94.50
7516;DHT22;3799;47.184;8.538;2023-03-22T09:11:45;13.40;94.60
7516;DHT22;3799;47.184;8.538;2023-03-22T09:14:19;13.20;94.10
7516;DHT22;3799;47.184;8.538;2023-03-22T09:16:47;13.40;93.60
7516;DHT22;3799;47.184;8.538;2023-03-22T09:19:14;13.50;92.90
7516;DHT22;3799;47.184;8.538;2023-03-22T09:21:42;13.80;92.50
7516;DHT22;3799;47.184;8.538;2023-03-22T09:24:12;13.60;91.70
7516;DHT22;3799;47.184;8.538;2023-03-22T09:26:40;13.80;90.50
7516;DHT22;3799;47.184;8.538;2023-03-22T09:29:07;14.00;89.90
7516;DHT22;3799;47.184;8.538;2023-03-22T09:31:34;13.90;84.20
7516;DHT22;3799;47.184;8.538;2023-03-22T09:34:02;14.00;83.60
7516;DHT22;3799;47.184;8.538;2023-03-22T09:36:29;14.00;82.10
7516;DHT22;3799;47.184;8.538;2023-03-22T09:38:58;14.20;81.50
7516;DHT22;3799;47.184;8.538;2023-03-22T09:41:28;14.10;80.60
7516;DHT22;3799;47.184;8.538;2023-03-22T09:44:01;14.50;80.30
7516;DHT22;3799;47.184;8.538;2023-03-22T09:46:34;14.40;78.70
7516;DHT22;3799;47.184;8.538;2023-03-22T09:49:24;14.70;78.40
7516;DHT22;3799;47.184;8.538;2023-03-22T09:51:54;14.80;76.80
7516;DHT22;3799;47.184;8.538;2023-03-22T09:54:34;14.80;75.60
7516;DHT22;3799;47.184;8.538;2023-03-22T09:59:49;15.20;73.00
7516;DHT22;3799;47.184;8.538;2023-03-22T10:10:49;15.30;64.10
7516;DHT22;3799;47.184;8.538;2023-03-22T10:13:41;15.60;63.80
7516;DHT22;3799;47.184;8.538;2023-03-22T10:16:24;15.70;61.90
7516;DHT22;3799;47.184;8.538;2023-03-22T10:19:04;15.90;60.30
7516;DHT22;3799;47.184;8.538;2023-03-22T10:21:33;15.80;59.70
7516;DHT22;3799;47.184;8.538;2023-03-22T10:24:13;16.20;59.10
7516;DHT22;3799;47.184;8.538;2023-03-22T10:26:44;16.50;58.90
7516;DHT22;3799;47.184;8.538;2023-03-22T10:32:12;16.80;58.00
7516;DHT22;3799;47.184;8.538;2023-03-22T10:34:39;16.90;57.30
7516;DHT22;3799;47.184;8.538;2023-03-22T10:37:12;16.70;56.50
7516;DHT22;3799;47.184;8.538;2023-03-22T10:39:44;16.90;56.20
7516;DHT22;3799;47.184;8.538;2023-03-22T10:42:15;17.10;56.00
7516;DHT22;3799;47.184;8.538;2023-03-22T10:47:26;17.10;55.60
7516;DHT22;3799;47.184;8.538;2023-03-22T10:49:56;17.10;55.30
7516;DHT22;3799;47.184;8.538;2023-03-22T10:52:53;17.30;55.40
7516;DHT22;3799;47.184;8.538;2023-03-22T10:55:23;17.70;54.90
7516;DHT22;3799;47.184;8.538;2023-03-22T11:00:49;17.90;54.50
7516;DHT22;3799;47.184;8.538;2023-03-22T11:03:40;17.90;54.40
7516;DHT22;3799;47.184;8.538;2023-03-22T11:06:15;17.50;53.60
7516;DHT22;3799;47.184;8.538;2023-03-22T11:09:22;18.00;53.30
7516;DHT22;3799;47.184;8.538;2023-03-22T11:14:34;18.10;52.20
7516;DHT22;3799;47.184;8.538;2023-03-22T11:19:35;18.20;51.50
7516;DHT22;3799;47.184;8.538;2023-03-22T11:22:03;17.90;51.40
7516;DHT22;3799;47.184;8.538;2023-03-22T11:24:33;18.60;51.80
7516;DHT22;3799;47.184;8.538;2023-03-22T11:29:47;18.50;51.70
7516;DHT22;3799;47.184;8.538;2023-03-22T11:35:43;18.70;50.20
7516;DHT22;3799;47.184;8.538;2023-03-22T11:37:51;19.20;50.60
7516;DHT22;3799;47.184;8.538;2023-03-22T11:40:22;19.60;49.90
7516;DHT22;3799;47.184;8.538;2023-03-22T11:45:33;19.50;49.60
7516;DHT22;3799;47.184;8.538;2023-03-22T11:48:05;19.70;49.40
7516;DHT22;3799;47.184;8.538;2023-03-22T11:50:36;19.90;49.60
7516;DHT22;3799;47.184;8.538;2023-03-22T11:53:16;20.00;49.10
7516;DHT22;3799;47.184;8.538;2023-03-22T11:55:45;20.30;49.00
7516;DHT22;3799;47.184;8.538;2023-03-22T12:01:05;20.50;47.90
7516;DHT22;3799;47.184;8.538;2023-03-22T12:03:36;20.30;48.50
7516;DHT22;3799;47.184;8.538;2023-03-22T12:06:21;20.10;48.80
7516;DHT22;3799;47.184;8.538;2023-03-22T12:08:57;20.40;48.30
7516;DHT22;3799;47.184;8.538;2023-03-22T12:11:38;20.80;48.60
7516;DHT22;3799;47.184;8.538;2023-03-22T12:14:22;20.70;48.10
7516;DHT22;3799;47.184;8.538;2023-03-22T12:17:06;21.00;47.50
7516;DHT22;3799;47.184;8.538;2023-03-22T12:19:48;21.20;47.10
7516;DHT22;3799;47.184;8.538;2023-03-22T12:22:33;21.40;46.30
7516;DHT22;3799;47.184;8.538;2023-03-22T12:25:19;21.60;45.90
7516;DHT22;3799;47.184;8.538;2023-03-22T12:27:53;21.70;45.10
7516;DHT22;3799;47.184;8.538;2023-03-22T12:30:27;21.80;45.00
7516;DHT22;3799;47.184;8.538;2023-03-22T12:33:14;21.70;45.30
7516;DHT22;3799;47.184;8.538;2023-03-22T12:35:45;21.70;45.10
7516;DHT22;3799;47.184;8.538;2023-03-22T12:38:37;21.80;45.60
7516;DHT22;3799;47.184;8.538;2023-03-22T12:41:10;22.00;45.80
7516;DHT22;3799;47.184;8.538;2023-03-22T12:46:25;22.50;45.00
7516;DHT22;3799;47.184;8.538;2023-03-22T12:48:56;22.80;44.80
7516;DHT22;3799;47.184;8.538;2023-03-22T12:51:30;23.10;44.60
7516;DHT22;3799;47.184;8.538;2023-03-22T12:53:58;23.20;44.50
7516;DHT22;3799;47.184;8.538;2023-03-22T12:57:13;23.30;44.70
7516;DHT22;3799;47.184;8.538;2023-03-22T12:59:57;23.40;44.10
7516;DHT22;3799;47.184;8.538;2023-03-22T13:02:34;23.40;43.80
7516;DHT22;3799;47.184;8.538;2023-03-22T13:05:06;23.30;43.70
7516;DHT22;3799;47.184;8.538;2023-03-22T13:13:10;23.40;43.40
7516;DHT22;3799;47.184;8.538;2023-03-22T13:16:12;23.60;43.50
7516;DHT22;3799;47.184;8.538;2023-03-22T13:21:24;24.30;42.90
7516;DHT22;3799;47.184;8.538;2023-03-22T13:26:43;24.40;42.00
7516;DHT22;3799;47.184;8.538;2023-03-22T13:29:35;24.40;42.50
7516;DHT22;3799;47.184;8.538;2023-03-22T13:34:58;24.70;42.30
7516;DHT22;3799;47.184;8.538;2023-03-22T13:37:33;24.80;41.70
7516;DHT22;3799;47.184;8.538;2023-03-22T13:40:14;25.00;41.80
7516;DHT22;3799;47.184;8.538;2023-03-22T13:42:49;25.20;41.30
7516;DHT22;3799;47.184;8.538;2023-03-22T13:45:29;25.40;40.90
7516;DHT22;3799;47.184;8.538;2023-03-22T13:48:05;25.60;40.80
7516;DHT22;3799;47.184;8.538;2023-03-22T13:50:38;25.80;40.40
7516;DHT22;3799;47.184;8.538;2023-03-22T13:53:26;25.90;40.40
7516;DHT22;3799;47.184;8.538;2023-03-22T13:55:59;26.00;40.60
7516;DHT22;3799;47.184;8.538;2023-03-22T14:01:20;26.30;39.70
7516;DHT22;3799;47.184;8.538;2023-03-22T14:03:51;26.50;39.50
7516;DHT22;3799;47.184;8.538;2023-03-22T14:06:27;26.80;39.40
7516;DHT22;3799;47.184;8.538;2023-03-22T14:09:12;26.90;39.00
7516;DHT22;3799;47.184;8.538;2023-03-22T14:11:55;26.90;38.90
7516;DHT22;3799;47.184;8.538;2023-03-22T14:14:40;26.80;38.70
7516;DHT22;3799;47.184;8.538;2023-03-22T14:19:43;26.80;38.10
7516;DHT22;3799;47.184;8.538;2023-03-22T14:22:32;26.90;38.00
7516;DHT22;3799;47.184;8.538;2023-03-22T14:25:00;27.00;37.60
7516;DHT22;3799;47.184;8.538;2023-03-22T14:27:27;27.10;37.50
7516;DHT22;3799;47.184;8.538;2023-03-22T14:29:53;27.10;37.40
7516;DHT22;3799;47.184;8.538;2023-03-22T14:32:25;27.10;37.60
7516;DHT22;3799;47.184;8.538;2023-03-22T14:35:17;27.20;37.50
7516;DHT22;3799;47.184;8.538;2023-03-22T14:37:46;27.10;37.20
7516;DHT22;3799;47.184;8.538;2023-03-22T14:40:33;27.00;37.40
7516;DHT22;3799;47.184;8.538;2023-03-22T14:45:46;27.30;36.90
7516;DHT22;3799;47.184;8.538;2023-03-22T14:48:23;27.40;36.60
7516;DHT22;3799;47.184;8.538;2023-03-22T14:51:15;27.40;36.20
7516;DHT22;3799;47.184;8.538;2023-03-22T14:53:45;27.40;36.00
7516;DHT22;3799;47.184;8.538;2023-03-22T14:56:22;27.40;36.00
7516;DHT22;3799;47.184;8.538;2023-03-22T14:59:17;27.40;35.80
7516;DHT22;3799;47.184;8.538;2023-03-22T15:02:18;27.30;35.80
7516;DHT22;3799;47.184;8.538;2023-03-22T15:05:33;27.30;35.80
7516;DHT22;3799;47.184;8.538;2023-03-22T15:08:22;27.60;35.30
7516;DHT22;3799;47.184;8.538;2023-03-22T15:10:54;27.70;34.60
7516;DHT22;3799;47.184;8.538;2023-03-22T15:13:24;27.90;34.60
7516;DHT22;3799;47.184;8.538;2023-03-22T15:15:53;28.20;34.80
7516;DHT22;3799;47.184;8.538;2023-03-22T15:18:23;28.30;34.20
7516;DHT22;3799;47.184;8.538;2023-03-22T15:20:54;28.40;33.80
7516;DHT22;3799;47.184;8.538;2023-03-22T15:23:53;28.50;33.00
7516;DHT22;3799;47.184;8.538;2023-03-22T15:26:40;28.20;32.70
7516;DHT22;3799;47.184;8.538;2023-03-22T15:29:08;27.80;33.10
7516;DHT22;3799;47.184;8.538;2023-03-22T15:31:41;27.80;33.10
7516;DHT22;3799;47.184;8.538;2023-03-22T15:34:17;27.70;32.70
7516;DHT22;3799;47.184;8.538;2023-03-22T15:36:46;27.60;33.10
7516;DHT22;3799;47.184;8.538;2023-03-22T15:39:20;27.70;33.00
7516;DHT22;3799;47.184;8.538;2023-03-22T15:42:04;27.80;33.10
7516;DHT22;3799;47.184;8.538;2023-03-22T15:44:32;27.80;33.20
7516;DHT22;3799;47.184;8.538;2023-03-22T15:49:44;28.00;32.50
7516;DHT22;3799;47.184;8.538;2023-03-22T15:52:30;28.10;32.30
7516;DHT22;3799;47.184;8.538;2023-03-22T15:55:11;28.20;32.30
7516;DHT22;3799;47.184;8.538;2023-03-22T15:57:59;28.20;32.40
7516;DHT22;3799;47.184;8.538;2023-03-22T16:00:28;28.10;32.20
7516;DHT22;3799;47.184;8.538;2023-03-22T16:03:12;28.00;32.00
7516;DHT22;3799;47.184;8.538;2023-03-22T16:05:42;27.70;31.80
7516;DHT22;3799;47.184;8.538;2023-03-22T16:08:12;27.50;32.10
7516;DHT22;3799;47.184;8.538;2023-03-22T16:10:42;27.10;31.60
7516;DHT22;3799;47.184;8.538;2023-03-22T16:13:18;26.80;32.10
7516;DHT22;3799;47.184;8.538;2023-03-22T16:15:46;26.80;32.30
7516;DHT22;3799;47.184;8.538;2023-03-22T16:18:16;26.80;32.40
7516;DHT22;3799;47.184;8.538;2023-03-22T16:20:43;26.80;32.50
7516;DHT22;3799;47.184;8.538;2023-03-22T16:23:18;26.80;32.40
7516;DHT22;3799;47.184;8.538;2023-03-22T16:25:46;26.80;32.40
7516;DHT22;3799;47.184;8.538;2023-03-22T16:28:16;26.70;32.50
7516;DHT22;3799;47.184;8.538;2023-03-22T16:30:48;26.50;32.30
7516;DHT22;3799;47.184;8.538;2023-03-22T16:33:16;26.20;32.70
7516;DHT22;3799;47.184;8.538;2023-03-22T16:35:47;25.80;32.80
7516;DHT22;3799;47.184;8.538;2023-03-22T16:38:25;25.50;32.80
7516;DHT22;3799;47.184;8.538;2023-03-22T16:40:59;25.20;33.50
7516;DHT22;3799;47.184;8.538;2023-03-22T16:43:26;24.90;34.30
7516;DHT22;3799;47.184;8.538;2023-03-22T16:45:54;24.60;35.30
7516;DHT22;3799;47.184;8.538;2023-03-22T16:48:21;24.40;35.60
7516;DHT22;3799;47.184;8.538;2023-03-22T16:50:49;24.10;35.60
7516;DHT22;3799;47.184;8.538;2023-03-22T16:53:18;23.90;35.50
7516;DHT22;3799;47.184;8.538;2023-03-22T16:55:46;23.60;36.40
7516;DHT22;3799;47.184;8.538;2023-03-22T16:58:13;23.40;37.30
7516;DHT22;3799;47.184;8.538;2023-03-22T17:00:41;23.10;38.10
7516;DHT22;3799;47.184;8.538;2023-03-22T17:03:15;22.70;39.80
7516;DHT22;3799;47.184;8.538;2023-03-22T17:05:43;22.20;40.00
7516;DHT22;3799;47.184;8.538;2023-03-22T17:08:19;21.80;40.30
7516;DHT22;3799;47.184;8.538;2023-03-22T17:10:55;21.40;40.70
7516;DHT22;3799;47.184;8.538;2023-03-22T17:13:22;21.00;41.30
7516;DHT22;3799;47.184;8.538;2023-03-22T17:15:50;20.60;42.00
7516;DHT22;3799;47.184;8.538;2023-03-22T17:18:19;20.20;42.30
7516;DHT22;3799;47.184;8.538;2023-03-22T17:20:55;19.90;42.60
7516;DHT22;3799;47.184;8.538;2023-03-22T17:23:57;19.70;42.90
7516;DHT22;3799;47.184;8.538;2023-03-22T17:26:51;19.10;42.90
7516;DHT22;3799;47.184;8.538;2023-03-22T17:29:22;18.70;43.00
7516;DHT22;3799;47.184;8.538;2023-03-22T17:31:55;18.80;43.50
7516;DHT22;3799;47.184;8.538;2023-03-22T17:34:32;17.90;43.90
7516;DHT22;3799;47.184;8.538;2023-03-22T17:37:00;18.00;44.50
7516;DHT22;3799;47.184;8.538;2023-03-22T17:39:28;17.60;44.60
7516;DHT22;3799;47.184;8.538;2023-03-22T17:42:25;17.20;44.80
7516;DHT22;3799;47.184;8.538;2023-03-22T17:44:54;17.00;45.40
7516;DHT22;3799;47.184;8.538;2023-03-22T17:47:24;16.90;46.00
7516;DHT22;3799;47.184;8.538;2023-03-22T17:49:56;16.40;46.20
7516;DHT22;3799;47.184;8.538;2023-03-22T17:52:39;16.30;46.70
7516;DHT22;3799;47.184;8.538;2023-03-22T17:55:07;16.00;46.80
7516;DHT22;3799;47.184;8.538;2023-03-22T17:57:52;16.10;47.10
7516;DHT22;3799;47.184;8.538;2023-03-22T18:00:42;15.70;47.20
7516;DHT22;3799;47.184;8.538;2023-03-22T18:03:10;15.80;47.60
7516;DHT22;3799;47.184;8.538;2023-03-22T18:05:38;15.30;47.30
7516;DHT22;3799;47.184;8.538;2023-03-22T18:08:06;15.50;47.80
7516;DHT22;3799;47.184;8.538;2023-03-22T18:10:54;15.40;48.00
7516;DHT22;3799;47.184;8.538;2023-03-22T18:13:21;15.40;48.40
7516;DHT22;3799;47.184;8.538;2023-03-22T18:15:49;14.90;48.20
7516;DHT22;3799;47.184;8.538;2023-03-22T18:18:16;15.00;48.50
7516;DHT22;3799;47.184;8.538;2023-03-22T18:20:44;15.00;48.80
7516;DHT22;3799;47.184;8.538;2023-03-22T18:23:23;14.90;49.00
7516;DHT22;3799;47.184;8.538;2023-03-22T18:25:57;14.60;49.10